Time;durP1;ratioP1;P1;durP2;ratioP2;P2;SDS_P1;SDS_P2;PMS_P1;PMS_P2;Temp;Humidity;BMP_temperature;BMP_pressure;BME280_temperature;BME280_humidity;BME280_pressure;Samples;Min_cycle;Max_cycle;Signal;HPM_P1;HPM_P2
2022/07/11 00:02:07;;;;;;;0.40;0.20;;;;;;;19.42;79.65;100913.78;4971589;28;20465;-52
2022/07/11 00:04:35;;;;;;;0.40;0.40;;;;;;;19.37;80.24;100917.72;4967956;28;20454;-51
2022/07/11 00:07:02;;;;;;;0.40;0.20;;;;;;;19.18;80.92;100907.91;4963329;28;20454;-51
2022/07/11 00:09:29;;;;;;;0.40;0.20;;;;;;;19.07;81.45;100918.41;4975940;28;20837;-52
2022/07/11 00:11:57;;;;;;;0.40;0.20;;;;;;;18.88;82.81;100915.81;4975872;28;20489;-52
2022/07/11 00:14:23;;;;;;;0.40;0.20;;;;;;;18.85;83.13;100907.03;4975983;28;20455;-51
2022/07/11 00:16:52;;;;;;;0.40;0.20;;;;;;;18.92;83.10;100905.78;4975661;28;20963;-52
2022/07/11 00:19:22;;;;;;;0.40;0.20;;;;;;;19.01;82.86;100904.38;4975862;28;20455;-51
2022/07/11 00:21:50;;;;;;;0.40;0.20;;;;;;;19.10;82.44;100896.69;4975660;28;20833;-52
2022/07/11 00:24:19;;;;;;;0.40;0.20;;;;;;;19.30;81.46;100900.09;4975541;28;20460;-52
2022/07/11 00:26:46;;;;;;;0.93;0.93;;;;;;;19.22;81.79;100903.25;4975745;28;20460;-52
2022/07/11 00:29:13;;;;;;;0.40;0.20;;;;;;;19.17;81.85;100897.22;4975373;28;20466;-51
2022/07/11 00:31:39;;;;;;;0.40;0.20;;;;;;;19.17;82.44;100897.22;4975844;28;20497;-52
2022/07/11 00:34:06;;;;;;;0.40;0.20;;;;;;;19.00;83.62;100892.75;4974265;28;20948;-51
2022/07/11 00:36:32;;;;;;;0.40;0.20;;;;;;;19.09;83.22;100886.00;4963651;28;20837;-52
2022/07/11 00:38:59;;;;;;;0.40;0.20;;;;;;;19.11;82.80;100893.03;4975244;28;20822;-51
2022/07/11 00:41:26;;;;;;;0.40;0.20;;;;;;;19.17;82.53;100878.34;4975059;28;20456;-52
2022/07/11 00:43:58;;;;;;;0.40;0.20;;;;;;;19.14;83.06;100879.38;4975162;28;20456;-52
2022/07/11 00:46:27;;;;;;;0.40;0.20;;;;;;;19.23;82.59;100881.59;4975648;28;20450;-52
2022/07/11 00:48:54;;;;;;;0.40;0.20;;;;;;;19.16;82.64;100876.59;4975094;28;20476;-52
2022/07/11 00:51:22;;;;;;;0.40;0.20;;;;;;;19.21;82.04;100877.25;4976154;28;20490;-52
2022/07/11 00:53:51;;;;;;;0.40;0.20;;;;;;;19.18;83.12;100880.09;4980078;28;20442;-51
2022/07/11 00:56:25;;;;;;;0.40;0.20;;;;;;;19.14;83.76;100873.13;4974636;28;20455;-51
2022/07/11 00:58:54;;;;;;;0.40;0.20;;;;;;;19.15;83.78;100873.03;4973282;28;20474;-51
2022/07/11 01:01:21;;;;;;;0.40;0.20;;;;;;;18.97;84.23;100874.06;4974915;28;20465;-51
2022/07/11 01:03:48;;;;;;;0.40;0.20;;;;;;;18.76;85.39;100872.50;4962128;28;20553;-51
2022/07/11 01:06:15;;;;;;;0.40;0.20;;;;;;;18.91;84.99;100871.66;4963895;28;20455;-52
2022/07/11 01:08:42;;;;;;;0.40;0.20;;;;;;;18.98;85.12;100874.91;4973202;28;20633;-51
2022/07/11 01:11:12;;;;;;;0.40;0.20;;;;;;;18.91;85.46;100868.97;4975160;28;20924;-52
2022/07/11 01:13:40;;;;;;;0.40;0.20;;;;;;;18.78;86.33;100873.31;4974456;28;20538;-52
2022/07/11 01:16:07;;;;;;;0.40;0.20;;;;;;;18.71;86.91;100869.19;4974949;28;20486;-52
2022/07/11 01:18:33;;;;;;;0.40;0.20;;;;;;;18.84;86.39;100863.06;4974951;28;20475;-51
2022/07/11 01:21:03;;;;;;;0.40;0.20;;;;;;;18.91;85.99;100860.88;4974596;28;20893;-52
2022/07/11 01:23:31;;;;;;;0.40;0.20;;;;;;;18.94;85.82;100861.63;4961867;28;20455;-52
2022/07/11 01:25:57;;;;;;;0.40;0.20;;;;;;;19.00;85.48;100863.09;4974541;28;20948;-50
2022/07/11 01:28:23;;;;;;;0.40;0.20;;;;;;;18.94;86.10;100861.63;4955012;28;20926;-51
2022/07/11 01:30:50;;;;;;;0.40;0.20;;;;;;;18.96;86.05;100863.34;4968193;28;20496;-52
2022/07/11 01:33:16;;;;;;;0.40;0.20;;;;;;;18.98;86.10;100854.22;4974556;28;20885;-52
2022/07/11 01:35:43;;;;;;;0.40;0.20;;;;;;;18.89;86.59;100855.59;4961191;28;20467;-52
2022/07/11 01:38:09;;;;;;;0.40;0.20;;;;;;;18.86;87.03;100854.88;4974117;28;20478;-52
2022/07/11 01:40:36;;;;;;;0.40;0.20;;;;;;;18.97;86.31;100851.63;4974393;28;20450;-51
2022/07/11 01:43:02;;;;;;;0.40;0.20;;;;;;;18.82;86.34;100856.03;4975153;28;20458;-52
2022/07/11 01:45:28;;;;;;;0.40;0.20;;;;;;;19.08;85.63;100844.69;4974508;28;20450;-52
2022/07/11 01:47:55;;;;;;;0.40;0.20;;;;;;;19.02;84.96;100850.41;4974446;28;20470;-52
2022/07/11 01:50:22;;;;;;;0.40;0.20;;;;;;;18.97;85.70;100849.81;4973845;28;20455;-52
2022/07/11 01:52:48;;;;;;;0.40;0.20;;;;;;;19.04;85.52;100843.09;4974300;28;20490;-51
2022/07/11 01:55:14;;;;;;;0.40;0.20;;;;;;;19.06;85.25;100849.31;4985553;28;20487;-52
2022/07/11 01:57:41;;;;;;;0.40;0.20;;;;;;;19.02;85.86;100841.44;4962726;28;21022;-51
2022/07/11 02:00:10;;;;;;;0.40;0.20;;;;;;;19.01;85.70;100837.88;4973829;28;20948;-51
2022/07/11 02:02:37;;;;;;;0.40;0.20;;;;;;;18.83;86.53;100845.16;4965502;28;20455;-51
2022/07/11 02:05:04;;;;;;;0.40;0.20;;;;;;;19.03;85.73;100844.06;4968011;28;20796;-51
2022/07/11 02:10:16;;;;;;;0.40;0.20;;;;;;;18.90;85.66;100848.38;4973971;28;20839;-51
2022/07/11 02:12:42;;;;;;;0.40;0.20;;;;;;;18.94;84.94;100834.69;4973760;28;20504;-51
2022/07/11 02:15:09;;;;;;;0.40;0.20;;;;;;;19.05;84.24;100838.59;4973734;28;20458;-51
2022/07/11 02:17:35;;;;;;;0.40;0.20;;;;;;;19.03;84.40;100835.09;4973427;28;20478;-52
2022/07/11 02:20:02;;;;;;;0.40;0.20;;;;;;;19.09;83.66;100832.97;4973669;28;20461;-52
2022/07/11 02:22:29;;;;;;;0.40;0.20;;;;;;;19.02;83.63;100830.69;4973781;28;20447;-52
2022/07/11 02:24:56;;;;;;;0.40;0.20;;;;;;;18.93;83.89;100832.06;4973674;28;20831;-51
2022/07/11 02:27:22;;;;;;;0.40;0.20;;;;;;;18.93;84.02;100832.94;4973858;28;20478;-51
2022/07/11 02:29:49;;;;;;;0.40;0.20;;;;;;;18.91;83.76;100824.06;4973208;28;20460;-52
2022/07/11 02:32:15;;;;;;;0.40;0.20;;;;;;;19.03;83.71;100837.81;4973487;28;20494;-51
2022/07/11 02:34:42;;;;;;;0.40;0.20;;;;;;;19.08;83.48;100833.91;4967323;28;20461;-51
2022/07/11 02:37:08;;;;;;;1.77;1.70;;;;;;;19.08;83.84;100836.63;4966556;28;20549;-51
2022/07/11 02:39:35;;;;;;;0.40;0.20;;;;;;;19.03;84.45;100835.97;4973410;28;20465;-52
2022/07/11 02:42:01;;;;;;;0.40;0.20;;;;;;;18.99;84.04;100838.94;4973209;28;20814;-52
2022/07/11 02:44:27;;;;;;;0.40;0.20;;;;;;;19.13;83.36;100833.66;4973221;28;20454;-52
2022/07/11 02:46:54;;;;;;;0.40;0.20;;;;;;;19.14;84.19;100844.34;4973532;28;20458;-52
2022/07/11 02:49:20;;;;;;;0.40;0.20;;;;;;;19.08;84.50;100836.63;4954879;28;20459;-48
2022/07/11 02:51:47;;;;;;;0.40;0.20;;;;;;;19.01;84.32;100835.19;4967149;28;20990;-48
2022/07/11 02:54:13;;;;;;;0.40;0.20;;;;;;;18.98;85.20;100831.81;4967022;28;20449;-48
2022/07/11 02:56:40;;;;;;;0.40;0.20;;;;;;;18.82;86.25;100837.16;4966761;28;20477;-49
2022/07/11 02:59:06;;;;;;;0.40;0.20;;;;;;;18.80;86.49;100831.88;4973027;28;20866;-48
2022/07/11 03:01:33;;;;;;;0.40;0.20;;;;;;;18.86;86.36;100844.13;4973162;28;20464;-48
2022/07/11 03:04:00;;;;;;;0.40;0.20;;;;;;;18.75;86.65;100839.31;4962227;28;20458;-47
2022/07/11 03:06:26;;;;;;;0.40;0.20;;;;;;;18.82;86.92;100840.72;4964448;28;20451;-50
2022/07/11 03:08:53;;;;;;;0.40;0.20;;;;;;;18.93;86.70;100841.03;4982870;28;21010;-48
2022/07/11 03:11:19;;;;;;;0.40;0.20;;;;;;;18.77;87.47;100845.47;4978730;28;21034;-48
2022/07/11 03:13:46;;;;;;;0.40;0.20;;;;;;;18.87;86.71;100844.03;4976968;28;20948;-48
2022/07/11 03:16:12;;;;;;;0.40;0.20;;;;;;;18.81;87.01;100843.50;4977082;28;20493;-48
2022/07/11 03:18:39;;;;;;;0.40;0.20;;;;;;;18.93;86.33;100840.16;4976793;28;20470;-50
2022/07/11 03:21:05;;;;;;;0.40;0.20;;;;;;;18.84;86.66;100843.34;4976891;28;20450;-48
2022/07/11 03:23:32;;;;;;;0.40;0.20;;;;;;;18.70;87.99;100837.81;4976934;28;20454;-49
2022/07/11 03:25:58;;;;;;;0.40;0.20;;;;;;;18.47;88.86;100839.84;4977094;28;20481;-49
2022/07/11 03:28:24;;;;;;;0.40;0.20;;;;;;;18.69;88.07;100839.66;4976662;28;20488;-50
2022/07/11 03:30:51;;;;;;;0.40;0.20;;;;;;;18.65;88.56;100838.06;4976815;28;20454;-48
2022/07/11 03:33:17;;;;;;;0.40;0.20;;;;;;;18.58;88.84;100845.56;4976683;28;20494;-48
2022/07/11 03:35:44;;;;;;;0.40;0.20;;;;;;;18.59;88.95;100844.59;4963657;28;20459;-48
2022/07/11 03:38:11;;;;;;;0.40;0.20;;;;;;;18.54;89.25;100845.81;4976560;28;20849;-48
2022/07/11 03:40:39;;;;;;;0.40;0.20;;;;;;;18.54;89.15;100835.91;4976368;28;20461;-48
2022/07/11 03:43:05;;;;;;;0.40;0.20;;;;;;;18.54;89.30;100832.34;4976775;28;20450;-48
2022/07/11 03:45:32;;;;;;;0.40;0.20;;;;;;;18.72;88.51;100836.78;4976411;28;20451;-48
2022/07/11 03:47:58;;;;;;;0.40;0.20;;;;;;;18.75;88.02;100835.75;4976420;28;20521;-48
2022/07/11 03:50:25;;;;;;;0.40;0.20;;;;;;;18.63;88.89;100835.44;4976577;28;20450;-48
2022/07/11 03:52:52;;;;;;;0.40;0.20;;;;;;;18.69;88.55;100836.09;4976360;28;20520;-47
2022/07/11 03:55:18;;;;;;;0.40;0.20;;;;;;;18.74;88.10;100829.47;4986509;28;20446;-48
2022/07/11 03:57:45;;;;;;;0.40;0.20;;;;;;;18.91;87.63;100828.56;4966052;28;20477;-48
2022/07/11 04:00:12;;;;;;;0.40;0.20;;;;;;;18.82;87.18;100829.09;4976131;28;20457;-48
2022/07/11 04:02:38;;;;;;;0.40;0.20;;;;;;;18.84;87.37;100827.16;4967264;28;20451;-48
2022/07/11 04:05:06;;;;;;;0.40;0.20;;;;;;;18.91;87.11;100826.78;4969532;28;20461;-48
2022/07/11 04:07:32;;;;;;;0.40;0.20;;;;;;;18.90;87.41;100829.50;4965915;28;20474;-48
2022/07/11 04:09:59;;;;;;;0.40;0.20;;;;;;;18.82;87.58;100829.09;4975829;28;20821;-49
2022/07/11 04:12:25;;;;;;;0.40;0.20;;;;;;;18.75;87.37;100830.34;4976186;28;20573;-48
2022/07/11 04:14:52;;;;;;;0.40;0.20;;;;;;;18.52;88.82;100823.47;4975684;28;20459;-48
2022/07/11 04:17:18;;;;;;;0.40;0.20;;;;;;;18.59;88.78;100825.75;4975520;28;20473;-48
2022/07/11 04:19:45;;;;;;;0.40;0.20;;;;;;;18.58;89.27;100826.72;4975644;28;20462;-48
2022/07/11 04:22:11;;;;;;;0.40;0.30;;;;;;;18.64;89.62;100831.81;4975910;28;20454;-48
2022/07/11 04:24:38;;;;;;;0.40;0.30;;;;;;;18.65;89.44;100830.00;4975841;28;20454;-48
2022/07/11 04:27:05;;;;;;;0.40;0.20;;;;;;;18.60;89.90;100824.81;4976006;28;20450;-48
2022/07/11 04:29:31;;;;;;;0.40;0.20;;;;;;;18.76;88.96;100830.25;4975672;28;20473;-48
2022/07/11 04:31:58;;;;;;;0.40;0.20;;;;;;;18.77;89.21;100829.31;4975751;28;20486;-50
2022/07/11 04:34:24;;;;;;;0.40;0.20;;;;;;;18.75;88.25;100833.91;4971726;28;20447;-48
2022/07/11 04:36:51;;;;;;;0.40;0.20;;;;;;;18.94;88.06;100828.41;4966206;28;20847;-49
2022/07/11 04:39:17;;;;;;;0.40;0.20;;;;;;;19.08;87.32;100827.66;4975660;28;20843;-48
2022/07/11 04:41:44;;;;;;;0.40;0.20;;;;;;;18.99;88.02;100826.34;4975521;28;20461;-48
2022/07/11 04:44:10;;;;;;;0.50;0.40;;;;;;;18.91;87.59;100833.94;4975488;28;20508;-48
2022/07/11 04:46:38;;;;;;;0.40;0.20;;;;;;;18.89;87.67;100833.16;4975776;28;20450;-49
2022/07/11 04:49:04;;;;;;;0.40;0.20;;;;;;;18.90;87.14;100838.47;4975245;28;20928;-49
2022/07/11 04:51:31;;;;;;;0.40;0.20;;;;;;;19.04;86.53;100834.16;4975148;28;20943;-49
2022/07/11 04:53:57;;;;;;;0.40;0.20;;;;;;;18.95;86.37;100838.25;4979747;28;20908;-49
2022/07/11 04:56:24;;;;;;;0.40;0.20;;;;;;;19.00;86.13;100838.84;4972695;28;20462;-48
2022/07/11 04:58:50;;;;;;;0.40;0.20;;;;;;;19.17;85.39;100833.38;4973308;28;20478;-49
2022/07/11 05:01:17;;;;;;;0.40;0.20;;;;;;;19.14;85.33;100838.97;4975204;28;20462;-48
2022/07/11 05:03:45;;;;;;;0.40;0.20;;;;;;;19.33;85.27;100833.44;4961895;28;20443;-48
2022/07/11 05:06:12;;;;;;;0.40;0.20;;;;;;;19.22;85.48;100839.41;4963577;28;20546;-49
2022/07/11 05:08:38;;;;;;;0.40;0.20;;;;;;;19.42;84.64;100838.28;4973176;28;20474;-48
2022/07/11 05:11:05;;;;;;;0.40;0.20;;;;;;;19.51;83.96;100842.31;4975168;28;20463;-49
2022/07/11 05:13:31;;;;;;;0.40;0.20;;;;;;;19.69;83.61;100835.00;4974840;28;20506;-49
2022/07/11 05:15:58;;;;;;;0.40;0.20;;;;;;;19.66;83.80;100841.44;4975032;28;20477;-49
2022/07/11 05:18:24;;;;;;;0.40;0.20;;;;;;;19.68;83.94;100842.22;4974633;28;21062;-49
2022/07/11 05:20:51;;;;;;;0.40;0.20;;;;;;;19.68;83.58;100849.47;4974465;28;20546;-49
2022/07/11 05:23:17;;;;;;;0.40;0.20;;;;;;;19.96;83.24;100857.69;4974807;28;20446;-48
2022/07/11 05:25:44;;;;;;;0.40;0.20;;;;;;;20.28;81.21;100852.22;4974872;28;20456;-49
2022/07/11 05:28:10;;;;;;;0.40;0.20;;;;;;;20.02;81.76;100853.78;4974168;28;20794;-48
2022/07/11 05:30:37;;;;;;;0.40;0.20;;;;;;;20.11;82.77;100850.53;4974691;28;20465;-49
2022/07/11 05:33:03;;;;;;;0.40;0.20;;;;;;;20.29;81.08;100860.25;4974718;28;20490;-49
2022/07/11 05:35:30;;;;;;;0.40;0.20;;;;;;;20.20;81.26;100863.47;4962318;28;20467;-48
2022/07/11 05:37:56;;;;;;;0.40;0.20;;;;;;;20.21;81.33;100861.66;4974086;28;20474;-49
2022/07/11 05:40:22;;;;;;;0.40;0.20;;;;;;;20.49;80.02;100866.31;4974663;28;20458;-48
2022/07/11 05:42:49;;;;;;;0.40;0.40;;;;;;;20.63;80.05;100867.19;4974311;28;20446;-48
2022/07/11 05:45:15;;;;;;;0.40;0.20;;;;;;;20.67;79.91;100865.16;4974453;28;20454;-49
2022/07/11 05:47:42;;;;;;;0.40;0.20;;;;;;;20.57;79.50;100864.88;4974288;28;20474;-49
2022/07/11 05:50:08;;;;;;;0.40;0.20;;;;;;;20.57;79.69;100874.81;4974383;28;20541;-49
2022/07/11 05:52:35;;;;;;;0.40;0.20;;;;;;;20.60;79.04;100875.50;4974180;28;20490;-49
2022/07/11 05:55:02;;;;;;;0.40;0.20;;;;;;;20.82;78.83;100877.72;4987090;28;20452;-49
2022/07/11 05:57:28;;;;;;;0.40;0.20;;;;;;;20.64;78.80;100876.16;4961363;28;20474;-49
2022/07/11 05:59:55;;;;;;;0.40;0.20;;;;;;;20.92;77.03;100878.91;4973913;28;20821;-49
2022/07/11 06:02:21;;;;;;;1.27;1.23;;;;;;;20.67;78.53;100868.75;4967776;28;20451;-48
2022/07/11 06:04:48;;;;;;;0.40;0.20;;;;;;;20.81;78.44;100870.59;4967264;28;20948;-49
2022/07/11 06:08:40;;;;;;;0.40;0.20;;;;;;;20.73;78.64;100866.66;4967892;28;20482;-48
2022/07/11 06:10:01;;;;;;;0.40;0.20;;;;;;;21.15;77.16;100865.78;4970094;28;20466;-48
2022/07/11 06:12:27;;;;;;;0.40;0.20;;;;;;;20.96;77.84;100875.03;4973909;28;20493;-47
2022/07/11 06:14:54;;;;;;;0.40;0.20;;;;;;;20.70;78.57;100865.00;4973555;28;20465;-48
2022/07/11 06:17:20;;;;;;;0.40;0.30;;;;;;;20.88;77.97;100866.56;4973742;28;20470;-47
2022/07/11 06:19:46;;;;;;;0.40;0.20;;;;;;;20.93;77.60;100869.84;4973669;28;20970;-50
2022/07/11 06:22:14;;;;;;;0.40;0.20;;;;;;;20.83;78.03;100871.41;4973981;28;20912;-49
2022/07/11 06:24:40;;;;;;;0.40;0.20;;;;;;;20.86;78.48;100864.94;4973569;28;20457;-49
2022/07/11 06:27:07;;;;;;;0.40;0.20;;;;;;;20.90;78.37;100869.16;4973841;28;20462;-49
2022/07/11 06:29:33;;;;;;;0.40;0.20;;;;;;;20.66;78.42;100872.41;4973458;28;20455;-49
2022/07/11 06:32:00;;;;;;;0.40;0.20;;;;;;;20.37;79.67;100874.13;4972531;28;20450;-49
2022/07/11 06:34:26;;;;;;;0.40;0.20;;;;;;;20.48;79.41;100865.44;4970281;28;20456;-49
2022/07/11 06:36:52;;;;;;;0.40;0.30;;;;;;;20.66;79.08;100869.69;4964245;28;20465;-49
2022/07/11 06:39:19;;;;;;;1.37;1.27;;;;;;;20.67;78.91;100866.03;4972770;28;20827;-49
2022/07/11 06:41:47;;;;;;;1.17;0.90;;;;;;;20.66;79.26;100876.94;4972587;28;20486;-49
2022/07/11 06:44:13;;;;;;;1.73;1.43;;;;;;;20.64;79.54;100873.47;4973352;28;20549;-49
2022/07/11 06:46:39;;;;;;;1.57;1.20;;;;;;;20.74;79.51;100880.06;4973665;28;20451;-50
2022/07/11 06:49:07;;;;;;;1.80;1.50;;;;;;;20.89;78.90;100879.09;4973393;28;20506;-49
2022/07/11 06:51:34;;;;;;;2.40;1.33;;;;;;;21.00;78.38;100887.44;4973463;28;20454;-49
2022/07/11 06:54:00;;;;;;;0.87;0.77;;;;;;;21.27;77.13;100890.25;4977797;28;20489;-51
2022/07/11 06:56:27;;;;;;;9.13;0.97;;;;;;;21.16;77.66;100887.31;4969975;28;20537;-49
2022/07/11 06:58:54;;;;;;;5.30;1.07;;;;;;;21.12;77.87;100887.63;4971625;28;20478;-49
2022/07/11 07:01:20;;;;;;;1.70;1.60;;;;;;;20.84;78.97;100883.94;4973289;28;20968;-49
2022/07/11 07:03:46;;;;;;;1.10;1.00;;;;;;;20.95;79.23;100880.53;4960264;28;20901;-49
2022/07/11 07:06:14;;;;;;;1.63;0.90;;;;;;;20.94;78.54;100881.50;4961892;28;20473;-49
2022/07/11 07:08:41;;;;;;;1.80;1.70;;;;;;;21.08;78.48;100880.66;4971768;28;20849;-49
2022/07/11 07:11:07;;;;;;;1.60;1.50;;;;;;;21.25;77.73;100875.09;4973224;28;20451;-50
2022/07/11 07:13:35;;;;;;;11.53;1.53;;;;;;;21.48;77.13;100876.31;4972916;28;20601;-50
2022/07/11 07:16:01;;;;;;;0.83;0.83;;;;;;;21.44;76.91;100872.09;4973165;28;20458;-49
2022/07/11 07:18:28;;;;;;;1.13;1.03;;;;;;;21.46;77.27;100876.41;4973118;28;20853;-49
2022/07/11 07:20:55;;;;;;;1.70;1.60;;;;;;;21.35;76.44;100889.75;4973470;28;20906;-50
2022/07/11 07:23:21;;;;;;;3.00;2.00;;;;;;;21.36;77.21;100886.09;4973028;28;20943;-49
2022/07/11 07:25:48;;;;;;;4.20;1.13;;;;;;;21.46;77.62;100883.66;4971827;28;20454;-49
2022/07/11 07:28:14;;;;;;;1.30;1.20;;;;;;;21.16;77.57;100873.81;4972926;28;20478;-49
2022/07/11 07:30:41;;;;;;;2.03;1.10;;;;;;;21.60;75.78;100880.94;4973219;28;20894;-49
2022/07/11 07:33:10;;;;;;;9.70;1.33;;;;;;;21.50;76.76;100886.06;4972753;28;21010;-49
2022/07/11 07:35:36;;;;;;;5.33;1.70;;;;;;;21.61;75.83;100890.78;4960654;28;20473;-50
2022/07/11 07:38:03;;;;;;;5.07;1.77;;;;;;;21.73;75.62;100887.28;4972617;28;20481;-50
2022/07/11 07:40:29;;;;;;;1.47;1.33;;;;;;;21.61;75.97;100893.50;4974513;28;20454;-50
2022/07/11 07:42:56;;;;;;;10.70;2.23;;;;;;;21.48;76.27;100893.41;4974244;28;20537;-49
2022/07/11 07:45:23;;;;;;;1.80;1.60;;;;;;;21.58;76.22;100888.28;4973142;28;20455;-48
2022/07/11 07:47:49;;;;;;;8.03;3.10;;;;;;;21.71;75.37;100897.34;4972758;28;20847;-47
2022/07/11 07:50:16;;;;;;;2.00;1.90;;;;;;;21.68;75.11;100894.84;4974553;28;20454;-49
2022/07/11 07:52:43;;;;;;;2.30;2.13;;;;;;;21.54;75.87;100895.75;4956773;28;20589;-50
2022/07/11 07:55:10;;;;;;;4.03;2.20;;;;;;;21.52;75.89;100897.69;4982566;28;20445;-47
2022/07/11 07:57:36;;;;;;;4.60;2.60;;;;;;;21.13;77.80;100894.78;4964573;28;20846;-50
2022/07/11 08:02:50;;;;;;;2.57;2.37;;;;;;;21.20;77.47;100905.09;4965755;28;20455;-49
2022/07/11 08:05:18;;;;;;;1.10;1.00;;;;;;;21.58;76.41;100897.28;4969468;28;20510;-48
2022/07/11 08:07:44;;;;;;;15.83;2.20;;;;;;;21.48;76.56;100900.66;4967318;28;20847;-49
2022/07/11 08:10:11;;;;;;;2.73;2.53;;;;;;;21.11;77.89;100897.56;4975873;28;20473;-47
2022/07/11 08:12:38;;;;;;;4.37;2.37;;;;;;;21.38;77.13;100905.81;4975966;28;20568;-48
2022/07/11 08:15:05;;;;;;;3.53;3.23;;;;;;;21.61;76.56;100909.72;4975875;28;20974;-49
2022/07/11 08:17:31;;;;;;;5.60;2.63;;;;;;;21.49;76.99;100905.97;4975873;28;20505;-48
2022/07/11 08:19:58;;;;;;;5.33;2.17;;;;;;;21.51;76.48;100916.69;4975716;28;20830;-48
2022/07/11 08:22:25;;;;;;;3.33;3.03;;;;;;;21.64;75.83;100914.06;4975820;28;20458;-48
2022/07/11 08:24:51;;;;;;;5.27;3.73;;;;;;;21.22;77.73;100921.22;4975752;28;20450;-48
2022/07/11 08:27:18;;;;;;;3.73;3.37;;;;;;;21.22;77.08;100924.78;4975650;28;20478;-48
2022/07/11 08:30:07;;;;;;;3.73;3.43;;;;;;;21.16;77.71;100913.50;4956444;28;20451;-50
2022/07/11 08:32:37;;;;;;;4.33;3.87;;;;;;;20.80;78.99;100919.34;4970384;28;20540;-49
2022/07/11 08:35:03;;;;;;;2.93;2.60;;;;;;;21.00;78.58;100914.47;4975885;28;20469;-48
2022/07/11 08:37:30;;;;;;;2.87;2.47;;;;;;;21.07;78.61;100916.75;4962711;28;20485;-49
2022/07/11 08:39:56;;;;;;;3.83;3.60;;;;;;;21.09;78.49;100923.81;4976176;28;20841;-48
2022/07/11 08:42:26;;;;;;;4.20;3.40;;;;;;;21.24;77.99;100922.88;4976010;28;20545;-48
2022/07/11 08:44:55;;;;;;;5.47;4.07;;;;;;;21.19;78.17;100919.56;4975837;28;20457;-48
2022/07/11 08:47:24;;;;;;;8.67;3.00;;;;;;;20.91;79.05;100925.81;4975303;28;20481;-48
2022/07/11 08:49:52;;;;;;;9.23;4.50;;;;;;;21.17;79.01;100923.34;4976202;28;20454;-49
2022/07/11 08:52:20;;;;;;;5.17;4.67;;;;;;;21.36;78.32;100926.66;4975605;28;20464;-49
2022/07/11 08:54:46;;;;;;;4.57;4.10;;;;;;;21.24;78.00;100927.38;4986495;28;20492;-49
2022/07/11 08:57:13;;;;;;;6.13;4.03;;;;;;;21.35;77.85;100921.34;4964583;28;20912;-49
2022/07/11 08:59:42;;;;;;;17.90;4.17;;;;;;;20.92;79.74;100924.88;4975195;28;20465;-49
2022/07/11 09:02:09;;;;;;;20.03;4.90;;;;;;;21.31;78.64;100925.22;4969543;28;20459;-49
2022/07/11 09:04:36;;;;;;;3.50;3.30;;;;;;;21.16;78.88;100929.72;4967578;28;20447;-50
2022/07/11 09:07:02;;;;;;;7.23;2.90;;;;;;;21.01;78.84;100923.44;4961774;28;20557;-49
2022/07/11 09:09:29;;;;;;;3.97;3.70;;;;;;;21.00;78.65;100927.97;4975053;28;20537;-49
2022/07/11 09:11:57;;;;;;;5.20;3.33;;;;;;;21.33;77.47;100924.16;4974923;28;20454;-49
2022/07/11 09:14:32;;;;;;;6.57;3.43;;;;;;;21.66;76.57;100923.00;4975085;28;20497;-49
2022/07/11 09:17:01;;;;;;;4.50;3.70;;;;;;;21.67;76.55;100919.31;4974799;28;20457;-50
2022/07/11 09:19:31;;;;;;;9.83;3.30;;;;;;;21.63;76.15;100924.03;4974776;28;20446;-49
2022/07/11 09:27:51;;;;;;;4.40;4.00;;;;;;;21.63;76.42;100913.19;4973978;28;20486;-49
2022/07/11 09:30:21;;;;;;;4.80;4.07;;;;;;;21.81;76.36;100912.03;4974656;28;20447;-49
2022/07/11 09:32:57;;;;;;;7.03;4.73;;;;;;;21.72;76.87;100906.34;4974723;28;20454;-49
2022/07/11 09:35:26;;;;;;;4.90;4.50;;;;;;;22.05;75.72;100914.97;4963631;28;20853;-49
2022/07/11 09:37:53;;;;;;;5.43;4.30;;;;;;;22.25;74.69;100913.66;4972838;28;20502;-49
2022/07/11 09:40:21;;;;;;;5.20;4.63;;;;;;;22.04;75.82;100913.19;4974550;28;20450;-49
2022/07/11 09:42:56;;;;;;;5.57;4.50;;;;;;;21.77;76.00;100918.59;4974453;28;20478;-50
2022/07/11 09:45:28;;;;;;;4.53;4.23;;;;;;;22.00;74.92;100913.50;4974436;28;20451;-49
2022/07/11 09:48:07;;;;;;;8.83;4.50;;;;;;;21.96;74.98;100914.69;4974487;28;20471;-49
2022/07/11 09:50:33;;;;;;;4.73;4.40;;;;;;;22.31;74.48;100909.66;4974029;28;20461;-49
2022/07/11 09:53:12;;;;;;;4.97;4.47;;;;;;;22.46;72.89;100908.59;4974344;28;20494;-49
2022/07/11 09:55:41;;;;;;;3.47;3.17;;;;;;;22.40;73.56;100909.03;4987396;28;20957;-49
2022/07/11 09:58:18;;;;;;;3.27;3.07;;;;;;;22.40;72.82;100909.03;4980055;28;20556;-52
2022/07/11 10:00:45;;;;;;;5.87;4.07;;;;;;;22.67;72.80;100906.28;4955048;28;20462;-49
2022/07/11 10:03:12;;;;;;;5.73;5.30;;;;;;;22.59;73.21;100901.38;4960335;28;20487;-52
2022/07/11 10:05:59;;;;;;;5.83;4.30;;;;;;;22.81;72.90;100894.47;4954652;28;20911;-50
2022/07/11 10:08:25;;;;;;;6.63;3.97;;;;;;;22.80;71.94;100892.75;4970237;28;20830;-49
2022/07/11 10:10:53;;;;;;;3.57;3.37;;;;;;;22.84;71.72;100899.72;4976409;28;20450;-49
2022/07/11 10:13:20;;;;;;;6.60;5.00;;;;;;;22.52;73.27;100901.91;4963748;28;20490;-49
2022/07/11 10:15:47;;;;;;;4.70;4.23;;;;;;;22.52;73.39;100894.66;4974081;28;20459;-49
2022/07/11 10:19:00;;;;;;;12.13;5.67;;;;;;;22.35;73.90;100903.06;4973707;28;20561;-49
2022/07/11 10:21:53;;;;;;;4.77;4.27;;;;;;;22.75;72.38;100912.91;4965509;28;20505;-50
2022/07/11 10:24:25;;;;;;;5.27;4.67;;;;;;;22.35;74.22;100905.78;4967153;28;20509;-49
2022/07/11 10:27:47;;;;;;;6.13;5.37;;;;;;;22.62;73.82;100906.63;4973614;28;20446;-49
2022/07/11 10:30:40;;;;;;;36.37;5.60;;;;;;;22.42;74.31;100907.97;4943004;28;20833;-49
2022/07/11 10:33:07;;;;;;;5.00;4.50;;;;;;;22.21;74.81;100913.97;4973475;28;20536;-51
2022/07/11 10:35:34;;;;;;;10.07;5.90;;;;;;;22.08;75.96;100916.63;4961156;28;20830;-49
2022/07/11 10:38:05;;;;;;;7.87;5.40;;;;;;;22.42;74.71;100915.22;4972970;28;20848;-49
2022/07/11 10:40:48;;;;;;;5.37;5.00;;;;;;;22.92;72.71;100924.47;4973720;28;20446;-50
2022/07/11 10:43:36;;;;;;;5.10;4.67;;;;;;;22.86;72.83;100930.28;4973509;28;20490;-49
2022/07/11 10:46:05;;;;;;;12.27;6.30;;;;;;;22.08;74.99;100925.63;4973389;28;20446;-49
2022/07/11 10:48:35;;;;;;;11.20;7.33;;;;;;;22.75;73.69;100929.19;4973596;28;20474;-49
2022/07/11 10:51:09;;;;;;;6.17;5.77;;;;;;;22.64;74.67;100922.75;4973574;28;20458;-49
2022/07/11 10:53:45;;;;;;;6.27;5.77;;;;;;;22.74;73.62;100918.41;4974634;28;20865;-49
2022/07/11 10:56:36;;;;;;;14.40;5.07;;;;;;;22.85;72.77;100926.72;4974446;28;20486;-49
2022/07/11 10:59:20;;;;;;;8.10;6.63;;;;;;;22.88;72.95;100912.06;4954322;28;20451;-49
2022/07/11 11:02:23;;;;;;;12.70;5.77;;;;;;;22.85;72.87;100912.28;4967114;28;20462;-49
2022/07/11 11:04:50;;;;;;;19.93;5.33;;;;;;;22.89;71.52;100906.56;4964806;28;20458;-49
2022/07/11 11:07:47;;;;;;;5.80;5.30;;;;;;;22.99;71.77;100914.91;4965784;28;20482;-49
2022/07/11 11:10:29;;;;;;;6.17;5.67;;;;;;;23.18;70.54;100900.94;4971437;28;20446;-49
2022/07/11 11:13:05;;;;;;;4.83;4.40;;;;;;;23.20;69.85;100905.25;4973062;28;20462;-50
2022/07/11 11:15:32;;;;;;;4.77;4.07;;;;;;;23.56;68.94;100903.56;4973372;28;20454;-49
2022/07/11 11:18:24;;;;;;;4.63;3.33;;;;;;;23.76;68.57;100899.44;4973463;28;20474;-49
2022/07/11 11:20:57;;;;;;;4.17;3.40;;;;;;;24.59;66.45;100894.94;4973117;28;20450;-49
2022/07/11 11:23:24;;;;;;;3.60;3.30;;;;;;;24.35;65.25;100903.13;4973135;28;20455;-49
2022/07/11 11:25:51;;;;;;;3.30;3.07;;;;;;;24.29;64.84;100886.41;4975788;28;20454;-49
2022/07/11 11:28:21;;;;;;;3.10;2.90;;;;;;;25.16;63.79;100891.38;4957739;28;20578;-49
2022/07/11 11:30:56;;;;;;;4.43;4.13;;;;;;;25.03;62.31;100887.91;4970763;28;20504;-50
2022/07/11 11:33:36;;;;;;;4.67;4.27;;;;;;;24.70;62.69;100877.78;4976785;28;20454;-49
2022/07/11 11:36:09;;;;;;;6.03;4.80;;;;;;;25.44;61.95;100883.69;4960902;28;20461;-49
2022/07/11 11:38:38;;;;;;;4.53;2.53;;;;;;;25.31;61.18;100890.13;4976944;28;20481;-49
2022/07/11 11:41:06;;;;;;;8.60;3.70;;;;;;;25.39;60.65;100887.66;4976643;28;20796;-50
2022/07/11 11:43:35;;;;;;;2.40;2.10;;;;;;;25.84;58.52;100884.91;4976476;28;20987;-49